Boynton Beach, Florida
Current Conditions -  °F | °C
As of 4:58 PM on Wednesday 22 Oct 2014 (Local Time) from KBCT Reporting Station
Broken Clouds Broken Clouds  
Wind Chill: 81°   Ceiling: 5500
Heat Index: 85°   Visibility: 10mi
Dew Point: 72°   Wind: 7mph
Humidity: 74%   Direction: 90°E
Pressure: 29.91"   Gusts: NA
Location:  26.53°N, 80.06°W
Report Text: KBCT 222058Z 09006KT 10SM BKN055 27/22 A2991
Loading
Personal Weather Stations






























Interactive Weather Map New forecast layout! Learn more

10-Day Weather Forecast

Advertisements
Track Severe Weather on mobile